sensor_id;sensor_type;location;lat;lon;timestamp;P1;durP1;ratioP1;P2;durP2;ratioP2
55150;SDS011;41041;43.162;20.538;2023-07-29T00:01:42;8.00;;;3.15;;
55150;SDS011;41041;43.162;20.538;2023-07-29T00:04:08;7.05;;;3.35;;
55150;SDS011;41041;43.162;20.538;2023-07-29T00:06:34;7.45;;;3.67;;
55150;SDS011;41041;43.162;20.538;2023-07-29T00:09:01;5.90;;;3.50;;
55150;SDS011;41041;43.162;20.538;2023-07-29T00:11:27;6.75;;;3.83;;
55150;SDS011;41041;43.162;20.538;2023-07-29T00:13:53;5.05;;;3.42;;
55150;SDS011;41041;43.162;20.538;2023-07-29T00:16:19;5.72;;;3.55;;
55150;SDS011;41041;43.162;20.538;2023-07-29T00:18:47;5.72;;;3.65;;
55150;SDS011;41041;43.162;20.538;2023-07-29T00:21:14;9.15;;;3.70;;
55150;SDS011;41041;43.162;20.538;2023-07-29T00:23:40;8.57;;;3.55;;
55150;SDS011;41041;43.162;20.538;2023-07-29T00:26:06;7.40;;;3.67;;
55150;SDS011;41041;43.162;20.538;2023-07-29T00:28:32;6.63;;;3.60;;
55150;SDS011;41041;43.162;20.538;2023-07-29T00:34:20;5.68;;;3.80;;
55150;SDS011;41041;43.162;20.538;2023-07-29T00:36:46;7.45;;;3.50;;
55150;SDS011;41041;43.162;20.538;2023-07-29T00:39:12;4.50;;;3.15;;
55150;SDS011;41041;43.162;20.538;2023-07-29T00:41:38;6.60;;;3.25;;
55150;SDS011;41041;43.162;20.538;2023-07-29T00:44:04;5.55;;;3.53;;
55150;SDS011;41041;43.162;20.538;2023-07-29T00:46:30;7.07;;;3.70;;
55150;SDS011;41041;43.162;20.538;2023-07-29T00:48:59;5.10;;;3.40;;
55150;SDS011;41041;43.162;20.538;2023-07-29T00:51:25;5.40;;;3.20;;
55150;SDS011;41041;43.162;20.538;2023-07-29T00:53:51;6.72;;;3.15;;
55150;SDS011;41041;43.162;20.538;2023-07-29T00:56:17;4.18;;;3.13;;
55150;SDS011;41041;43.162;20.538;2023-07-29T00:58:44;7.03;;;3.30;;
55150;SDS011;41041;43.162;20.538;2023-07-29T01:01:09;5.25;;;3.28;;
55150;SDS011;41041;43.162;20.538;2023-07-29T01:03:35;5.18;;;3.42;;
55150;SDS011;41041;43.162;20.538;2023-07-29T01:06:18;8.18;;;3.35;;
55150;SDS011;41041;43.162;20.538;2023-07-29T01:09:34;5.47;;;3.10;;
55150;SDS011;41041;43.162;20.538;2023-07-29T01:12:08;6.80;;;3.40;;
55150;SDS011;41041;43.162;20.538;2023-07-29T01:18:12;5.43;;;3.42;;
55150;SDS011;41041;43.162;20.538;2023-07-29T01:20:53;5.30;;;3.47;;
55150;SDS011;41041;43.162;20.538;2023-07-29T01:23:23;8.02;;;3.90;;
55150;SDS011;41041;43.162;20.538;2023-07-29T01:26:02;6.68;;;3.30;;
55150;SDS011;41041;43.162;20.538;2023-07-29T01:28:28;6.30;;;3.60;;
55150;SDS011;41041;43.162;20.538;2023-07-29T01:30:57;5.45;;;3.65;;
55150;SDS011;41041;43.162;20.538;2023-07-29T01:33:30;6.70;;;3.45;;
55150;SDS011;41041;43.162;20.538;2023-07-29T01:36:08;5.80;;;3.40;;
55150;SDS011;41041;43.162;20.538;2023-07-29T01:38:40;5.18;;;2.92;;
55150;SDS011;41041;43.162;20.538;2023-07-29T01:41:08;4.70;;;3.50;;
55150;SDS011;41041;43.162;20.538;2023-07-29T01:43:36;6.68;;;3.70;;
55150;SDS011;41041;43.162;20.538;2023-07-29T01:46:15;7.05;;;3.67;;
55150;SDS011;41041;43.162;20.538;2023-07-29T01:48:41;5.68;;;3.90;;
55150;SDS011;41041;43.162;20.538;2023-07-29T01:51:07;9.10;;;4.00;;
55150;SDS011;41041;43.162;20.538;2023-07-29T01:53:34;7.05;;;4.35;;
55150;SDS011;41041;43.162;20.538;2023-07-29T01:56:00;6.55;;;4.43;;
55150;SDS011;41041;43.162;20.538;2023-07-29T01:58:27;7.57;;;4.32;;
55150;SDS011;41041;43.162;20.538;2023-07-29T02:00:53;8.02;;;4.43;;
55150;SDS011;41041;43.162;20.538;2023-07-29T02:03:19;8.25;;;4.20;;
55150;SDS011;41041;43.162;20.538;2023-07-29T02:05:45;7.93;;;4.18;;
55150;SDS011;41041;43.162;20.538;2023-07-29T02:08:11;7.75;;;4.00;;
55150;SDS011;41041;43.162;20.538;2023-07-29T02:10:37;7.63;;;4.00;;
55150;SDS011;41041;43.162;20.538;2023-07-29T02:16:25;7.22;;;3.80;;
55150;SDS011;41041;43.162;20.538;2023-07-29T02:18:51;7.95;;;3.63;;
55150;SDS011;41041;43.162;20.538;2023-07-29T02:21:17;6.25;;;3.35;;
55150;SDS011;41041;43.162;20.538;2023-07-29T02:23:45;5.72;;;3.75;;
55150;SDS011;41041;43.162;20.538;2023-07-29T02:26:11;6.80;;;3.40;;
55150;SDS011;41041;43.162;20.538;2023-07-29T02:28:37;6.28;;;3.63;;
55150;SDS011;41041;43.162;20.538;2023-07-29T02:31:15;6.47;;;3.35;;
55150;SDS011;41041;43.162;20.538;2023-07-29T02:33:49;6.72;;;3.50;;
55150;SDS011;41041;43.162;20.538;2023-07-29T02:36:16;4.88;;;3.40;;
55150;SDS011;41041;43.162;20.538;2023-07-29T02:38:42;6.75;;;3.28;;
55150;SDS011;41041;43.162;20.538;2023-07-29T02:41:09;7.20;;;3.53;;
55150;SDS011;41041;43.162;20.538;2023-07-29T02:43:37;6.18;;;3.42;;
55150;SDS011;41041;43.162;20.538;2023-07-29T02:46:03;4.43;;;3.08;;
55150;SDS011;41041;43.162;20.538;2023-07-29T02:48:29;6.78;;;3.20;;
55150;SDS011;41041;43.162;20.538;2023-07-29T02:50:56;4.57;;;3.30;;
55150;SDS011;41041;43.162;20.538;2023-07-29T02:53:22;4.20;;;3.20;;
55150;SDS011;41041;43.162;20.538;2023-07-29T02:55:48;4.32;;;2.90;;
55150;SDS011;41041;43.162;20.538;2023-07-29T02:58:14;5.18;;;3.25;;
55150;SDS011;41041;43.162;20.538;2023-07-29T03:00:40;5.80;;;3.30;;
55150;SDS011;41041;43.162;20.538;2023-07-29T03:03:10;5.07;;;3.38;;
55150;SDS011;41041;43.162;20.538;2023-07-29T03:05:35;4.78;;;3.28;;
55150;SDS011;41041;43.162;20.538;2023-07-29T03:08:02;5.32;;;3.40;;
55150;SDS011;41041;43.162;20.538;2023-07-29T03:10:28;5.85;;;3.40;;
55150;SDS011;41041;43.162;20.538;2023-07-29T03:12:54;7.47;;;3.50;;
55150;SDS011;41041;43.162;20.538;2023-07-29T03:15:24;4.88;;;3.47;;
55150;SDS011;41041;43.162;20.538;2023-07-29T03:18:09;7.18;;;3.38;;
55150;SDS011;41041;43.162;20.538;2023-07-29T03:20:37;5.28;;;3.80;;
55150;SDS011;41041;43.162;20.538;2023-07-29T03:23:03;6.70;;;3.65;;
55150;SDS011;41041;43.162;20.538;2023-07-29T03:25:32;8.05;;;3.55;;
55150;SDS011;41041;43.162;20.538;2023-07-29T03:28:00;7.20;;;3.80;;
55150;SDS011;41041;43.162;20.538;2023-07-29T03:30:29;7.10;;;3.60;;
55150;SDS011;41041;43.162;20.538;2023-07-29T03:32:58;7.43;;;3.25;;
55150;SDS011;41041;43.162;20.538;2023-07-29T03:35:33;4.65;;;3.30;;
55150;SDS011;41041;43.162;20.538;2023-07-29T03:37:59;5.53;;;3.47;;
55150;SDS011;41041;43.162;20.538;2023-07-29T03:40:25;7.47;;;3.22;;
55150;SDS011;41041;43.162;20.538;2023-07-29T03:42:51;5.38;;;3.40;;
55150;SDS011;41041;43.162;20.538;2023-07-29T03:45:17;8.73;;;3.42;;
55150;SDS011;41041;43.162;20.538;2023-07-29T04:04:48;5.78;;;3.50;;
55150;SDS011;41041;43.162;20.538;2023-07-29T04:07:24;7.30;;;3.58;;
55150;SDS011;41041;43.162;20.538;2023-07-29T04:17:55;5.97;;;3.50;;
55150;SDS011;41041;43.162;20.538;2023-07-29T04:20:23;7.82;;;3.95;;
55150;SDS011;41041;43.162;20.538;2023-07-29T04:22:57;8.25;;;3.60;;
55150;SDS011;41041;43.162;20.538;2023-07-29T04:25:31;7.85;;;3.75;;
55150;SDS011;41041;43.162;20.538;2023-07-29T04:28:02;7.05;;;3.55;;
55150;SDS011;41041;43.162;20.538;2023-07-29T05:19:37;7.38;;;3.75;;
55150;SDS011;41041;43.162;20.538;2023-07-29T05:22:05;6.53;;;4.00;;
55150;SDS011;41041;43.162;20.538;2023-07-29T05:24:37;7.43;;;4.10;;
55150;SDS011;41041;43.162;20.538;2023-07-29T05:29:41;9.48;;;4.40;;
55150;SDS011;41041;43.162;20.538;2023-07-29T05:32:07;11.52;;;4.72;;
55150;SDS011;41041;43.162;20.538;2023-07-29T05:37:08;10.38;;;4.78;;
55150;SDS011;41041;43.162;20.538;2023-07-29T05:49:58;7.50;;;3.83;;
55150;SDS011;41041;43.162;20.538;2023-07-29T05:52:30;7.88;;;3.95;;
55150;SDS011;41041;43.162;20.538;2023-07-29T05:55:05;15.63;;;5.13;;
55150;SDS011;41041;43.162;20.538;2023-07-29T05:57:31;11.60;;;5.00;;
55150;SDS011;41041;43.162;20.538;2023-07-29T06:00:11;14.20;;;4.38;;
55150;SDS011;41041;43.162;20.538;2023-07-29T06:02:41;6.95;;;4.40;;
55150;SDS011;41041;43.162;20.538;2023-07-29T06:05:10;9.27;;;4.55;;
55150;SDS011;41041;43.162;20.538;2023-07-29T06:07:38;7.80;;;4.20;;
55150;SDS011;41041;43.162;20.538;2023-07-29T06:24:42;6.30;;;3.78;;
55150;SDS011;41041;43.162;20.538;2023-07-29T06:27:11;9.32;;;4.55;;
55150;SDS011;41041;43.162;20.538;2023-07-29T06:29:40;8.32;;;3.88;;
55150;SDS011;41041;43.162;20.538;2023-07-29T06:32:18;7.82;;;3.55;;
55150;SDS011;41041;43.162;20.538;2023-07-29T06:34:47;5.57;;;3.65;;
55150;SDS011;41041;43.162;20.538;2023-07-29T06:37:13;10.35;;;4.20;;
55150;SDS011;41041;43.162;20.538;2023-07-29T06:39:44;10.23;;;3.88;;
55150;SDS011;41041;43.162;20.538;2023-07-29T06:42:18;8.70;;;3.88;;
55150;SDS011;41041;43.162;20.538;2023-07-29T06:45:00;10.45;;;4.22;;
55150;SDS011;41041;43.162;20.538;2023-07-29T06:50:12;6.53;;;3.45;;
55150;SDS011;41041;43.162;20.538;2023-07-29T06:52:51;21.98;;;4.53;;
55150;SDS011;41041;43.162;20.538;2023-07-29T06:55:17;39.58;;;7.80;;
55150;SDS011;41041;43.162;20.538;2023-07-29T06:57:43;38.53;;;7.40;;
55150;SDS011;41041;43.162;20.538;2023-07-29T07:00:25;60.58;;;10.50;;
55150;SDS011;41041;43.162;20.538;2023-07-29T07:03:02;48.08;;;8.80;;
55150;SDS011;41041;43.162;20.538;2023-07-29T07:05:28;24.33;;;5.30;;
55150;SDS011;41041;43.162;20.538;2023-07-29T07:07:58;33.63;;;6.00;;
55150;SDS011;41041;43.162;20.538;2023-07-29T07:10:24;21.90;;;5.70;;
55150;SDS011;41041;43.162;20.538;2023-07-29T07:12:53;33.55;;;5.72;;
55150;SDS011;41041;43.162;20.538;2023-07-29T07:15:23;22.13;;;5.85;;
55150;SDS011;41041;43.162;20.538;2023-07-29T07:17:52;24.20;;;5.82;;
55150;SDS011;41041;43.162;20.538;2023-07-29T07:20:18;13.93;;;5.03;;
55150;SDS011;41041;43.162;20.538;2023-07-29T07:22:44;20.40;;;5.35;;
55150;SDS011;41041;43.162;20.538;2023-07-29T07:25:10;14.27;;;5.07;;
55150;SDS011;41041;43.162;20.538;2023-07-29T07:27:39;18.67;;;4.95;;
55150;SDS011;41041;43.162;20.538;2023-07-29T07:30:06;15.18;;;3.83;;
55150;SDS011;41041;43.162;20.538;2023-07-29T07:32:43;11.02;;;3.80;;
55150;SDS011;41041;43.162;20.538;2023-07-29T07:35:19;8.45;;;3.35;;
55150;SDS011;41041;43.162;20.538;2023-07-29T07:37:45;8.07;;;3.28;;
55150;SDS011;41041;43.162;20.538;2023-07-29T08:12:30;6.63;;;3.25;;
55150;SDS011;41041;43.162;20.538;2023-07-29T08:14:56;6.20;;;3.50;;
55150;SDS011;41041;43.162;20.538;2023-07-29T08:17:22;9.35;;;3.13;;
55150;SDS011;41041;43.162;20.538;2023-07-29T08:19:48;13.52;;;3.35;;
55150;SDS011;41041;43.162;20.538;2023-07-29T08:22:14;6.78;;;3.20;;
55150;SDS011;41041;43.162;20.538;2023-07-29T08:24:48;6.32;;;3.00;;
55150;SDS011;41041;43.162;20.538;2023-07-29T08:27:14;7.50;;;3.20;;
55150;SDS011;41041;43.162;20.538;2023-07-29T08:29:41;13.15;;;3.38;;
55150;SDS011;41041;43.162;20.538;2023-07-29T08:32:07;5.80;;;2.70;;
55150;SDS011;41041;43.162;20.538;2023-07-29T08:34:33;8.15;;;2.92;;
55150;SDS011;41041;43.162;20.538;2023-07-29T08:36:59;9.40;;;2.78;;
55150;SDS011;41041;43.162;20.538;2023-07-29T08:39:25;6.53;;;2.63;;
55150;SDS011;41041;43.162;20.538;2023-07-29T08:42:06;4.68;;;2.88;;
55150;SDS011;41041;43.162;20.538;2023-07-29T08:44:36;7.00;;;2.50;;
55150;SDS011;41041;43.162;20.538;2023-07-29T08:47:09;4.90;;;2.33;;
55150;SDS011;41041;43.162;20.538;2023-07-29T08:49:39;5.57;;;2.40;;
55150;SDS011;41041;43.162;20.538;2023-07-29T08:52:09;6.30;;;2.40;;
55150;SDS011;41041;43.162;20.538;2023-07-29T08:54:39;7.72;;;2.30;;
55150;SDS011;41041;43.162;20.538;2023-07-29T08:57:06;7.43;;;2.70;;
55150;SDS011;41041;43.162;20.538;2023-07-29T08:59:45;5.53;;;2.80;;
55150;SDS011;41041;43.162;20.538;2023-07-29T09:02:14;11.55;;;2.95;;
55150;SDS011;41041;43.162;20.538;2023-07-29T09:04:40;6.85;;;2.58;;
55150;SDS011;41041;43.162;20.538;2023-07-29T09:07:06;6.05;;;2.33;;
55150;SDS011;41041;43.162;20.538;2023-07-29T09:09:33;4.78;;;2.60;;
55150;SDS011;41041;43.162;20.538;2023-07-29T09:12:14;8.43;;;3.00;;
55150;SDS011;41041;43.162;20.538;2023-07-29T09:14:43;7.03;;;2.60;;
55150;SDS011;41041;43.162;20.538;2023-07-29T09:17:09;5.35;;;2.35;;
55150;SDS011;41041;43.162;20.538;2023-07-29T09:19:42;6.88;;;2.65;;
55150;SDS011;41041;43.162;20.538;2023-07-29T09:22:20;3.40;;;2.25;;
55150;SDS011;41041;43.162;20.538;2023-07-29T09:24:46;4.72;;;2.20;;
55150;SDS011;41041;43.162;20.538;2023-07-29T09:27:23;4.00;;;2.42;;
55150;SDS011;41041;43.162;20.538;2023-07-29T09:29:50;3.80;;;2.30;;
55150;SDS011;41041;43.162;20.538;2023-07-29T09:32:19;4.22;;;2.50;;
55150;SDS011;41041;43.162;20.538;2023-07-29T09:34:46;5.20;;;2.25;;
55150;SDS011;41041;43.162;20.538;2023-07-29T09:37:16;7.03;;;2.50;;
55150;SDS011;41041;43.162;20.538;2023-07-29T09:39:46;4.00;;;2.10;;
55150;SDS011;41041;43.162;20.538;2023-07-29T09:42:20;9.00;;;2.53;;
55150;SDS011;41041;43.162;20.538;2023-07-29T09:44:48;5.53;;;2.33;;
55150;SDS011;41041;43.162;20.538;2023-07-29T09:47:19;7.18;;;2.45;;
55150;SDS011;41041;43.162;20.538;2023-07-29T09:49:48;5.00;;;2.05;;
55150;SDS011;41041;43.162;20.538;2023-07-29T09:52:18;4.15;;;2.58;;
55150;SDS011;41041;43.162;20.538;2023-07-29T09:54:45;4.15;;;2.30;;
55150;SDS011;41041;43.162;20.538;2023-07-29T09:57:16;6.53;;;2.33;;
55150;SDS011;41041;43.162;20.538;2023-07-29T09:59:43;7.60;;;2.85;;
55150;SDS011;41041;43.162;20.538;2023-07-29T10:02:21;3.78;;;2.30;;
55150;SDS011;41041;43.162;20.538;2023-07-29T10:04:50;4.35;;;2.25;;
55150;SDS011;41041;43.162;20.538;2023-07-29T10:07:17;4.07;;;2.00;;
55150;SDS011;41041;43.162;20.538;2023-07-29T10:09:45;5.68;;;2.30;;
55150;SDS011;41041;43.162;20.538;2023-07-29T10:15:14;4.60;;;2.20;;
55150;SDS011;41041;43.162;20.538;2023-07-29T10:17:40;3.25;;;2.25;;
55150;SDS011;41041;43.162;20.538;2023-07-29T10:20:10;3.95;;;2.20;;
55150;SDS011;41041;43.162;20.538;2023-07-29T10:22:40;4.25;;;2.35;;
55150;SDS011;41041;43.162;20.538;2023-07-29T10:25:07;5.40;;;2.20;;
55150;SDS011;41041;43.162;20.538;2023-07-29T10:27:42;6.43;;;2.10;;
55150;SDS011;41041;43.162;20.538;2023-07-29T10:30:12;5.55;;;2.50;;
55150;SDS011;41041;43.162;20.538;2023-07-29T10:32:41;3.75;;;2.20;;
55150;SDS011;41041;43.162;20.538;2023-07-29T10:35:20;7.85;;;2.20;;
55150;SDS011;41041;43.162;20.538;2023-07-29T10:37:46;7.55;;;2.40;;
55150;SDS011;41041;43.162;20.538;2023-07-29T10:40:16;3.03;;;1.95;;
55150;SDS011;41041;43.162;20.538;2023-07-29T10:43:09;3.55;;;1.98;;
55150;SDS011;41041;43.162;20.538;2023-07-29T10:45:37;2.92;;;2.00;;
55150;SDS011;41041;43.162;20.538;2023-07-29T10:48:05;6.28;;;2.40;;
55150;SDS011;41041;43.162;20.538;2023-07-29T10:50:38;5.00;;;2.20;;
55150;SDS011;41041;43.162;20.538;2023-07-29T10:53:04;3.83;;;2.10;;
55150;SDS011;41041;43.162;20.538;2023-07-29T10:55:34;8.13;;;2.58;;
55150;SDS011;41041;43.162;20.538;2023-07-29T10:58:08;4.22;;;2.03;;
55150;SDS011;41041;43.162;20.538;2023-07-29T11:00:34;3.20;;;2.30;;
55150;SDS011;41041;43.162;20.538;2023-07-29T11:03:01;3.35;;;1.95;;
55150;SDS011;41041;43.162;20.538;2023-07-29T11:05:45;4.47;;;2.22;;
55150;SDS011;41041;43.162;20.538;2023-07-29T11:08:27;5.43;;;2.10;;
55150;SDS011;41041;43.162;20.538;2023-07-29T11:13:48;3.55;;;2.20;;
55150;SDS011;41041;43.162;20.538;2023-07-29T11:16:15;3.85;;;2.40;;
55150;SDS011;41041;43.162;20.538;2023-07-29T11:18:42;5.07;;;2.22;;
55150;SDS011;41041;43.162;20.538;2023-07-29T11:21:09;3.53;;;2.30;;
55150;SDS011;41041;43.162;20.538;2023-07-29T11:23:36;4.85;;;2.50;;
55150;SDS011;41041;43.162;20.538;2023-07-29T11:26:03;4.80;;;2.00;;
55150;SDS011;41041;43.162;20.538;2023-07-29T11:28:29;3.28;;;2.17;;
55150;SDS011;41041;43.162;20.538;2023-07-29T11:30:56;4.35;;;2.50;;
55150;SDS011;41041;43.162;20.538;2023-07-29T11:33:26;4.88;;;2.30;;
55150;SDS011;41041;43.162;20.538;2023-07-29T11:35:54;2.70;;;2.00;;
55150;SDS011;41041;43.162;20.538;2023-07-29T11:38:21;3.88;;;2.20;;
55150;SDS011;41041;43.162;20.538;2023-07-29T11:40:58;4.03;;;2.17;;
55150;SDS011;41041;43.162;20.538;2023-07-29T11:43:26;4.82;;;2.28;;
55150;SDS011;41041;43.162;20.538;2023-07-29T11:48:45;2.83;;;2.10;;
55150;SDS011;41041;43.162;20.538;2023-07-29T11:51:11;4.05;;;2.38;;
55150;SDS011;41041;43.162;20.538;2023-07-29T11:53:38;5.70;;;2.25;;
55150;SDS011;41041;43.162;20.538;2023-07-29T11:56:04;3.15;;;2.10;;
55150;SDS011;41041;43.162;20.538;2023-07-29T11:58:30;4.60;;;2.10;;
55150;SDS011;41041;43.162;20.538;2023-07-29T12:00:57;3.92;;;2.17;;
55150;SDS011;41041;43.162;20.538;2023-07-29T12:03:23;3.65;;;2.20;;
55150;SDS011;41041;43.162;20.538;2023-07-29T12:05:49;3.42;;;2.15;;
55150;SDS011;41041;43.162;20.538;2023-07-29T12:08:15;4.20;;;2.28;;
55150;SDS011;41041;43.162;20.538;2023-07-29T12:10:59;4.50;;;2.25;;
55150;SDS011;41041;43.162;20.538;2023-07-29T12:13:25;3.10;;;2.00;;
55150;SDS011;41041;43.162;20.538;2023-07-29T12:15:50;3.50;;;2.13;;
55150;SDS011;41041;43.162;20.538;2023-07-29T12:18:18;5.22;;;2.20;;
55150;SDS011;41041;43.162;20.538;2023-07-29T12:20:44;2.70;;;2.00;;
55150;SDS011;41041;43.162;20.538;2023-07-29T12:23:11;8.45;;;2.40;;
55150;SDS011;41041;43.162;20.538;2023-07-29T12:25:37;3.38;;;2.25;;
55150;SDS011;41041;43.162;20.538;2023-07-29T12:28:05;3.40;;;2.15;;
55150;SDS011;41041;43.162;20.538;2023-07-29T12:30:31;4.40;;;2.30;;
55150;SDS011;41041;43.162;20.538;2023-07-29T12:32:57;4.30;;;2.28;;
55150;SDS011;41041;43.162;20.538;2023-07-29T12:35:24;4.00;;;2.15;;
55150;SDS011;41041;43.162;20.538;2023-07-29T12:38:01;4.78;;;2.30;;
55150;SDS011;41041;43.162;20.538;2023-07-29T12:40:27;3.60;;;2.38;;
55150;SDS011;41041;43.162;20.538;2023-07-29T12:42:53;6.10;;;2.13;;
55150;SDS011;41041;43.162;20.538;2023-07-29T12:45:19;3.38;;;2.00;;
55150;SDS011;41041;43.162;20.538;2023-07-29T12:47:47;3.10;;;2.15;;
55150;SDS011;41041;43.162;20.538;2023-07-29T12:50:20;3.72;;;2.22;;
55150;SDS011;41041;43.162;20.538;2023-07-29T12:52:46;3.03;;;2.33;;
55150;SDS011;41041;43.162;20.538;2023-07-29T12:55:12;5.88;;;2.05;;
55150;SDS011;41041;43.162;20.538;2023-07-29T12:57:39;8.40;;;2.22;;
55150;SDS011;41041;43.162;20.538;2023-07-29T13:00:08;9.90;;;2.40;;
55150;SDS011;41041;43.162;20.538;2023-07-29T13:02:35;7.72;;;2.22;;
55150;SDS011;41041;43.162;20.538;2023-07-29T13:05:03;3.53;;;2.40;;
55150;SDS011;41041;43.162;20.538;2023-07-29T13:07:37;8.07;;;2.60;;
55150;SDS011;41041;43.162;20.538;2023-07-29T13:10:09;7.75;;;2.45;;
55150;SDS011;41041;43.162;20.538;2023-07-29T13:12:36;3.78;;;2.10;;
55150;SDS011;41041;43.162;20.538;2023-07-29T13:15:02;3.85;;;2.10;;
55150;SDS011;41041;43.162;20.538;2023-07-29T13:17:29;4.88;;;2.08;;
55150;SDS011;41041;43.162;20.538;2023-07-29T13:19:58;4.10;;;2.15;;
55150;SDS011;41041;43.162;20.538;2023-07-29T13:22:32;4.43;;;2.20;;
55150;SDS011;41041;43.162;20.538;2023-07-29T13:24:59;2.92;;;2.08;;
55150;SDS011;41041;43.162;20.538;2023-07-29T13:27:25;5.50;;;2.25;;
55150;SDS011;41041;43.162;20.538;2023-07-29T13:29:58;3.85;;;2.30;;
55150;SDS011;41041;43.162;20.538;2023-07-29T13:32:24;3.60;;;2.30;;
55150;SDS011;41041;43.162;20.538;2023-07-29T13:35:04;3.22;;;2.10;;
55150;SDS011;41041;43.162;20.538;2023-07-29T13:37:30;3.63;;;2.60;;
55150;SDS011;41041;43.162;20.538;2023-07-29T13:39:56;3.35;;;1.98;;
55150;SDS011;41041;43.162;20.538;2023-07-29T13:42:24;3.70;;;2.17;;
55150;SDS011;41041;43.162;20.538;2023-07-29T13:44:50;3.58;;;2.25;;
55150;SDS011;41041;43.162;20.538;2023-07-29T13:47:16;4.95;;;2.30;;
55150;SDS011;41041;43.162;20.538;2023-07-29T13:49:42;4.35;;;2.10;;
55150;SDS011;41041;43.162;20.538;2023-07-29T13:52:08;4.22;;;2.15;;
55150;SDS011;41041;43.162;20.538;2023-07-29T13:54:34;5.50;;;2.17;;
55150;SDS011;41041;43.162;20.538;2023-07-29T13:57:01;3.88;;;2.20;;
55150;SDS011;41041;43.162;20.538;2023-07-29T13:59:27;4.35;;;2.17;;
55150;SDS011;41041;43.162;20.538;2023-07-29T14:01:53;6.90;;;2.03;;
55150;SDS011;41041;43.162;20.538;2023-07-29T14:04:19;3.17;;;2.28;;
55150;SDS011;41041;43.162;20.538;2023-07-29T14:06:45;4.05;;;2.35;;
55150;SDS011;41041;43.162;20.538;2023-07-29T14:09:10;13.02;;;2.85;;
55150;SDS011;41041;43.162;20.538;2023-07-29T14:11:44;4.65;;;2.15;;
55150;SDS011;41041;43.162;20.538;2023-07-29T14:14:10;6.53;;;2.30;;
55150;SDS011;41041;43.162;20.538;2023-07-29T14:16:36;6.43;;;2.25;;
55150;SDS011;41041;43.162;20.538;2023-07-29T14:19:01;6.68;;;2.40;;
55150;SDS011;41041;43.162;20.538;2023-07-29T14:21:27;10.20;;;2.78;;
55150;SDS011;41041;43.162;20.538;2023-07-29T14:23:53;14.88;;;2.42;;
55150;SDS011;41041;43.162;20.538;2023-07-29T14:26:19;4.13;;;2.08;;
55150;SDS011;41041;43.162;20.538;2023-07-29T14:28:45;3.58;;;2.10;;
55150;SDS011;41041;43.162;20.538;2023-07-29T14:31:11;9.48;;;2.78;;
55150;SDS011;41041;43.162;20.538;2023-07-29T14:33:37;7.18;;;2.10;;
55150;SDS011;41041;43.162;20.538;2023-07-29T14:36:02;5.55;;;2.17;;
55150;SDS011;41041;43.162;20.538;2023-07-29T14:38:29;3.30;;;2.08;;
55150;SDS011;41041;43.162;20.538;2023-07-29T14:40:55;4.50;;;2.10;;
55150;SDS011;41041;43.162;20.538;2023-07-29T14:43:22;3.60;;;2.13;;
55150;SDS011;41041;43.162;20.538;2023-07-29T14:45:53;3.30;;;1.88;;
55150;SDS011;41041;43.162;20.538;2023-07-29T14:48:19;5.95;;;2.05;;
55150;SDS011;41041;43.162;20.538;2023-07-29T14:53:47;6.03;;;2.20;;
55150;SDS011;41041;43.162;20.538;2023-07-29T14:59:19;4.78;;;3.28;;
55150;SDS011;41041;43.162;20.538;2023-07-29T15:13:54;4.38;;;2.15;;
55150;SDS011;41041;43.162;20.538;2023-07-29T15:16:22;3.88;;;2.40;;
55150;SDS011;41041;43.162;20.538;2023-07-29T15:18:49;3.58;;;2.40;;
55150;SDS011;41041;43.162;20.538;2023-07-29T15:24:19;3.28;;;2.00;;
55150;SDS011;41041;43.162;20.538;2023-07-29T15:26:45;4.18;;;2.50;;
55150;SDS011;41041;43.162;20.538;2023-07-29T15:29:11;4.57;;;2.30;;
55150;SDS011;41041;43.162;20.538;2023-07-29T15:31:39;6.80;;;2.42;;
55150;SDS011;41041;43.162;20.538;2023-07-29T15:34:05;3.80;;;2.47;;
55150;SDS011;41041;43.162;20.538;2023-07-29T15:36:31;5.38;;;2.50;;
55150;SDS011;41041;43.162;20.538;2023-07-29T15:38:57;4.65;;;2.30;;
55150;SDS011;41041;43.162;20.538;2023-07-29T15:41:23;4.45;;;2.42;;
55150;SDS011;41041;43.162;20.538;2023-07-29T15:43:49;4.45;;;2.75;;
55150;SDS011;41041;43.162;20.538;2023-07-29T15:46:15;4.25;;;2.40;;
55150;SDS011;41041;43.162;20.538;2023-07-29T15:48:41;3.20;;;2.20;;
55150;SDS011;41041;43.162;20.538;2023-07-29T15:51:07;5.63;;;2.28;;
55150;SDS011;41041;43.162;20.538;2023-07-29T15:53:34;6.80;;;2.50;;
55150;SDS011;41041;43.162;20.538;2023-07-29T15:56:00;6.07;;;2.70;;
55150;SDS011;41041;43.162;20.538;2023-07-29T16:01:30;4.07;;;2.30;;
55150;SDS011;41041;43.162;20.538;2023-07-29T16:03:56;3.53;;;2.25;;
55150;SDS011;41041;43.162;20.538;2023-07-29T16:06:23;4.72;;;2.30;;
55150;SDS011;41041;43.162;20.538;2023-07-29T16:08:49;5.03;;;2.15;;
55150;SDS011;41041;43.162;20.538;2023-07-29T16:11:15;3.58;;;2.25;;
55150;SDS011;41041;43.162;20.538;2023-07-29T16:13:42;4.38;;;2.05;;
55150;SDS011;41041;43.162;20.538;2023-07-29T16:16:08;2.33;;;1.98;;
55150;SDS011;41041;43.162;20.538;2023-07-29T16:18:35;3.88;;;2.30;;
55150;SDS011;41041;43.162;20.538;2023-07-29T16:21:01;4.75;;;2.53;;
55150;SDS011;41041;43.162;20.538;2023-07-29T16:23:27;5.88;;;2.47;;
55150;SDS011;41041;43.162;20.538;2023-07-29T16:25:56;3.65;;;2.17;;
55150;SDS011;41041;43.162;20.538;2023-07-29T16:28:22;4.18;;;2.30;;
55150;SDS011;41041;43.162;20.538;2023-07-29T16:30:48;3.70;;;2.40;;
55150;SDS011;41041;43.162;20.538;2023-07-29T16:33:14;4.22;;;2.40;;
55150;SDS011;41041;43.162;20.538;2023-07-29T16:35:40;3.47;;;2.55;;
55150;SDS011;41041;43.162;20.538;2023-07-29T16:38:07;4.97;;;2.38;;
55150;SDS011;41041;43.162;20.538;2023-07-29T16:40:39;3.92;;;2.50;;
55150;SDS011;41041;43.162;20.538;2023-07-29T16:43:07;3.75;;;1.95;;
55150;SDS011;41041;43.162;20.538;2023-07-29T16:45:43;5.80;;;2.45;;
55150;SDS011;41041;43.162;20.538;2023-07-29T16:48:10;3.92;;;2.65;;
55150;SDS011;41041;43.162;20.538;2023-07-29T16:50:36;5.22;;;2.65;;
55150;SDS011;41041;43.162;20.538;2023-07-29T16:53:05;6.43;;;2.40;;
55150;SDS011;41041;43.162;20.538;2023-07-29T16:55:31;5.07;;;2.45;;
55150;SDS011;41041;43.162;20.538;2023-07-29T16:57:58;3.83;;;2.35;;
55150;SDS011;41041;43.162;20.538;2023-07-29T17:00:24;3.35;;;2.28;;
55150;SDS011;41041;43.162;20.538;2023-07-29T17:02:50;7.72;;;3.70;;
55150;SDS011;41041;43.162;20.538;2023-07-29T17:05:16;8.30;;;5.10;;
55150;SDS011;41041;43.162;20.538;2023-07-29T17:07:42;7.55;;;4.60;;
55150;SDS011;41041;43.162;20.538;2023-07-29T17:10:08;7.45;;;3.50;;
55150;SDS011;41041;43.162;20.538;2023-07-29T17:12:35;5.38;;;2.60;;
55150;SDS011;41041;43.162;20.538;2023-07-29T17:15:01;6.82;;;2.53;;
55150;SDS011;41041;43.162;20.538;2023-07-29T17:17:27;3.67;;;2.60;;
55150;SDS011;41041;43.162;20.538;2023-07-29T17:19:53;3.20;;;2.20;;
55150;SDS011;41041;43.162;20.538;2023-07-29T17:22:21;6.15;;;2.55;;
55150;SDS011;41041;43.162;20.538;2023-07-29T17:24:47;5.80;;;2.70;;
55150;SDS011;41041;43.162;20.538;2023-07-29T17:27:13;3.17;;;2.20;;
55150;SDS011;41041;43.162;20.538;2023-07-29T17:29:39;4.60;;;2.67;;
55150;SDS011;41041;43.162;20.538;2023-07-29T17:32:07;4.72;;;2.90;;
55150;SDS011;41041;43.162;20.538;2023-07-29T17:34:34;6.15;;;2.90;;
55150;SDS011;41041;43.162;20.538;2023-07-29T17:37:00;8.40;;;3.90;;
55150;SDS011;41041;43.162;20.538;2023-07-29T17:39:26;8.30;;;3.65;;
55150;SDS011;41041;43.162;20.538;2023-07-29T17:41:52;8.30;;;4.20;;
55150;SDS011;41041;43.162;20.538;2023-07-29T17:44:18;6.78;;;4.03;;